Time;durP1;ratioP1;P1;durP2;ratioP2;P2;SDS_P1;SDS_P2;PMS_P1;PMS_P2;Temp;Humidity;BMP_temperature;BMP_pressure;BME280_temperature;BME280_humidity;BME280_pressure;Samples;Min_cycle;Max_cycle;Signal;HPM_P1;HPM_P2
2020/12/29 00:01:41;;;;;;;19.50;13.00;;;5.40;1.00;;;;;;5031623;28;20461;-58
2020/12/29 00:04:11;;;;;;;17.23;13.43;;;5.50;1.00;;;;;;5034279;28;20447;-59
2020/12/29 00:07:03;;;;;;;16.83;13.10;;;5.40;1.00;;;;;;5019623;28;20423;-65
2020/12/29 00:09:29;;;;;;;19.33;13.73;;;5.40;1.00;;;;;;5030919;28;20447;-57
2020/12/29 00:11:55;;;;;;;21.03;14.30;;;5.30;1.00;;;;;;5033591;28;20477;-66
2020/12/29 00:14:23;;;;;;;15.97;12.20;;;5.30;1.00;;;;;;5033035;28;20245;-58
2020/12/29 00:16:48;;;;;;;20.70;13.40;;;5.30;1.00;;;;;;5032885;28;20542;-65
2020/12/29 00:19:20;;;;;;;18.07;13.80;;;5.30;1.00;;;;;;5033796;28;20527;-66
2020/12/29 00:21:45;;;;;;;17.90;12.83;;;5.20;1.00;;;;;;5034621;28;20187;-65
2020/12/29 00:24:12;;;;;;;19.03;13.70;;;5.20;1.00;;;;;;5032383;28;20439;-66
2020/12/29 00:26:38;;;;;;;16.57;11.47;;;5.20;1.00;;;;;;5033563;28;20274;-65
2020/12/29 00:29:04;;;;;;;16.97;12.83;;;5.10;1.00;;;;;;5033212;28;20954;-58
2020/12/29 00:31:30;;;;;;;15.00;12.13;;;5.10;1.00;;;;;;5033567;28;20238;-65
2020/12/29 00:33:56;;;;;;;17.63;13.77;;;5.10;1.00;;;;;;5033137;28;20184;-66
2020/12/29 00:36:23;;;;;;;17.57;13.27;;;5.10;1.00;;;;;;5032756;28;20527;-58
2020/12/29 00:38:48;;;;;;;18.10;12.97;;;5.20;1.00;;;;;;5033268;28;20427;-66
2020/12/29 00:41:15;;;;;;;17.70;12.70;;;5.20;1.00;;;;;;5034060;28;20527;-65
2020/12/29 00:43:42;;;;;;;20.93;14.37;;;5.20;1.00;;;;;;5031725;28;20928;-58
2020/12/29 00:46:09;;;;;;;19.20;13.03;;;5.30;1.00;;;;;;5033927;28;20439;-65
2020/12/29 00:48:35;;;;;;;15.67;11.37;;;5.20;1.00;;;;;;5033899;28;20442;-65
2020/12/29 00:51:06;;;;;;;20.57;13.10;;;5.30;1.00;;;;;;5032989;28;20463;-57
2020/12/29 00:53:31;;;;;;;19.87;14.07;;;5.40;1.00;;;;;;5033101;28;20474;-58
2020/12/29 00:56:02;;;;;;;13.83;12.17;;;5.50;1.00;;;;;;5032239;28;20467;-65
2020/12/29 00:58:28;;;;;;;16.30;12.47;;;5.40;1.00;;;;;;5015623;28;20500;-66
2020/12/29 01:00:54;;;;;;;19.93;12.67;;;5.40;1.00;;;;;;5032695;28;20446;-66
2020/12/29 01:03:20;;;;;;;15.90;11.60;;;5.30;1.00;;;;;;5012854;28;20284;-65
2020/12/29 01:05:46;;;;;;;16.87;12.63;;;5.30;1.00;;;;;;5030256;28;20530;-59
2020/12/29 01:08:11;;;;;;;17.97;13.57;;;5.30;1.00;;;;;;5036649;28;20215;-58
2020/12/29 01:10:38;;;;;;;19.33;13.80;;;5.50;1.00;;;;;;5036665;28;20543;-66
2020/12/29 01:13:04;;;;;;;16.50;12.77;;;5.40;1.00;;;;;;5038079;28;20177;-66
2020/12/29 01:15:29;;;;;;;17.47;13.00;;;5.30;1.00;;;;;;5034703;28;20441;-67
2020/12/29 01:17:55;;;;;;;19.50;13.20;;;5.40;1.00;;;;;;5036523;28;20465;-66
2020/12/29 01:20:24;;;;;;;16.30;12.40;;;5.40;1.00;;;;;;5036625;28;20176;-60
2020/12/29 01:22:51;;;;;;;16.17;13.27;;;5.30;1.00;;;;;;5033501;28;20181;-59
2020/12/29 01:25:17;;;;;;;16.90;12.27;;;5.30;1.00;;;;;;5037416;28;20920;-58
2020/12/29 01:27:43;;;;;;;17.30;12.70;;;5.30;1.00;;;;;;5035903;28;20439;-57
2020/12/29 01:30:08;;;;;;;18.07;14.07;;;5.30;1.00;;;;;;5036793;28;20301;-57
2020/12/29 01:32:37;;;;;;;17.90;12.40;;;5.30;1.00;;;;;;5036012;28;20246;-57
2020/12/29 01:35:03;;;;;;;16.80;13.33;;;5.20;1.00;;;;;;5037423;28;20242;-65
2020/12/29 01:37:29;;;;;;;16.70;12.37;;;5.20;1.00;;;;;;5035525;28;20459;-57
2020/12/29 01:39:55;;;;;;;16.70;12.50;;;5.10;1.00;;;;;;5032234;28;20908;-58
2020/12/29 01:42:21;;;;;;;18.87;11.63;;;5.00;1.00;;;;;;5016969;28;20196;-58
2020/12/29 01:44:46;;;;;;;20.97;14.37;;;4.90;1.00;;;;;;5036651;28;20519;-65
2020/12/29 01:47:13;;;;;;;15.43;12.23;;;4.80;1.00;;;;;;5036133;28;20904;-58
2020/12/29 01:49:39;;;;;;;16.03;12.43;;;4.70;1.00;;;;;;5035876;28;20188;-66
2020/12/29 01:52:05;;;;;;;15.23;11.20;;;4.50;1.00;;;;;;5036686;28;20467;-59
2020/12/29 01:54:30;;;;;;;17.10;12.93;;;4.50;1.00;;;;;;5036667;28;20908;-59
2020/12/29 01:56:56;;;;;;;16.33;12.13;;;4.50;1.00;;;;;;5035919;28;20180;-66
2020/12/29 01:59:22;;;;;;;17.07;13.40;;;4.40;1.00;;;;;;5035513;28;20212;-66
2020/12/29 02:01:49;;;;;;;20.57;13.23;;;4.40;1.00;;;;;;5034764;28;20439;-58
2020/12/29 02:04:15;;;;;;;17.40;13.27;;;4.30;1.00;;;;;;5036220;28;20183;-67
2020/12/29 02:06:41;;;;;;;21.40;14.47;;;4.30;1.00;;;;;;5037143;28;20481;-66
2020/12/29 02:09:08;;;;;;;17.20;11.33;;;4.40;1.00;;;;;;5033928;28;20216;-66
2020/12/29 02:11:35;;;;;;;18.67;12.33;;;4.30;1.00;;;;;;5035675;28;20458;-58
2020/12/29 02:14:02;;;;;;;17.17;12.90;;;4.30;1.00;;;;;;5037234;28;20435;-65
2020/12/29 02:16:27;;;;;;;15.70;12.47;;;4.40;1.00;;;;;;5035386;28;20447;-58
2020/12/29 02:18:53;;;;;;;19.80;13.00;;;4.30;1.00;;;;;;5035890;28;20420;-59
2020/12/29 02:21:19;;;;;;;16.30;12.80;;;;;;;;;;5056102;28;20204;-64
2020/12/29 02:23:45;;;;;;;18.07;12.47;;;4.30;1.00;;;;;;5057333;28;20431;-65
2020/12/29 02:26:11;;;;;;;17.60;12.47;;;4.30;1.00;;;;;;5057250;28;20461;-65
2020/12/29 02:28:37;;;;;;;14.80;11.77;;;4.30;1.00;;;;;;5031673;28;20764;-58
2020/12/29 02:31:03;;;;;;;15.97;12.17;;;4.30;1.00;;;;;;5036045;28;20223;-66
2020/12/29 02:33:28;;;;;;;16.10;11.73;;;4.30;1.00;;;;;;5036036;28;20664;-65
2020/12/29 02:35:54;;;;;;;17.33;12.63;;;4.30;1.00;;;;;;5035094;28;20191;-66
2020/12/29 02:38:24;;;;;;;17.93;13.03;;;4.30;1.00;;;;;;5035185;28;20195;-65
2020/12/29 02:40:51;;;;;;;14.37;11.80;;;4.20;1.00;;;;;;5036266;28;20315;-65
2020/12/29 02:43:17;;;;;;;19.93;13.77;;;4.20;1.00;;;;;;5033210;28;20456;-61
2020/12/29 02:45:44;;;;;;;17.03;13.60;;;4.20;1.00;;;;;;5038803;28;20423;-57
2020/12/29 02:48:10;;;;;;;15.17;12.27;;;4.20;1.00;;;;;;5036263;28;20444;-64
2020/12/29 02:50:36;;;;;;;19.70;13.93;;;4.10;1.00;;;;;;5036844;28;20465;-58
2020/12/29 02:53:02;;;;;;;16.60;12.97;;;4.10;1.00;;;;;;5029634;28;20445;-58
2020/12/29 02:55:28;;;;;;;18.90;13.00;;;4.10;1.00;;;;;;5035790;28;20215;-58
2020/12/29 02:57:54;;;;;;;21.03;13.17;;;4.00;1.00;;;;;;5035632;28;20432;-66
2020/12/29 03:00:23;;;;;;;17.40;12.97;;;4.00;1.00;;;;;;5034740;28;20199;-66
2020/12/29 03:02:49;;;;;;;16.97;12.23;;;4.00;1.00;;;;;;5034320;28;20532;-58
2020/12/29 03:05:14;;;;;;;18.00;12.87;;;4.00;1.00;;;;;;5031492;28;20526;-57
2020/12/29 03:07:40;;;;;;;18.03;12.80;;;4.00;1.00;;;;;;5034487;28;20191;-58
2020/12/29 03:10:09;;;;;;;20.50;12.87;;;4.00;1.00;;;;;;5034967;28;20208;-66
2020/12/29 03:12:40;;;;;;;19.60;14.27;;;3.90;1.00;;;;;;5034000;28;20503;-68
2020/12/29 03:15:08;;;;;;;17.17;12.80;;;3.90;1.00;;;;;;5035486;28;20420;-65
2020/12/29 03:17:34;;;;;;;16.53;13.10;;;3.80;1.00;;;;;;5035461;28;20419;-66
2020/12/29 03:20:05;;;;;;;18.33;13.10;;;3.80;1.00;;;;;;5034087;28;20523;-58
2020/12/29 03:22:32;;;;;;;19.33;14.10;;;3.80;1.00;;;;;;5034873;28;20444;-58
2020/12/29 03:24:58;;;;;;;20.47;13.47;;;3.80;1.00;;;;;;5032867;28;20441;-58
2020/12/29 03:27:23;;;;;;;20.43;13.27;;;3.90;1.00;;;;;;5031894;28;20521;-57
2020/12/29 03:29:49;;;;;;;20.83;13.80;;;3.80;1.00;;;;;;5033527;28;20269;-66
2020/12/29 03:32:15;;;;;;;22.53;13.67;;;3.80;1.00;;;;;;5033825;28;20180;-58
2020/12/29 03:34:40;;;;;;;20.90;14.40;;;3.90;1.00;;;;;;5033308;28;20188;-58
2020/12/29 03:37:08;;;;;;;23.37;14.90;;;3.90;1.00;;;;;;5033875;28;20188;-65
2020/12/29 03:39:34;;;;;;;20.10;14.00;;;3.90;1.00;;;;;;5032494;28;20188;-67
2020/12/29 03:42:00;;;;;;;23.97;14.80;;;3.90;1.00;;;;;;5032833;28;20439;-59
2020/12/29 03:44:26;;;;;;;21.67;14.03;;;3.90;1.00;;;;;;5034732;28;20835;-57
2020/12/29 03:46:52;;;;;;;19.47;13.70;;;3.80;1.00;;;;;;5033107;28;20524;-60
2020/12/29 03:49:21;;;;;;;17.93;12.17;;;3.80;1.00;;;;;;5033705;28;20553;-58
2020/12/29 03:51:46;;;;;;;18.97;13.33;;;3.80;1.00;;;;;;5032594;28;20212;-58
2020/12/29 03:54:12;;;;;;;21.23;14.80;;;3.80;1.00;;;;;;5034561;28;20450;-66
2020/12/29 03:56:38;;;;;;;20.83;14.23;;;3.90;1.00;;;;;;5034544;28;20256;-58
2020/12/29 03:59:04;;;;;;;19.03;13.70;;;4.00;1.00;;;;;;5033533;28;20521;-66
2020/12/29 04:01:29;;;;;;;20.70;14.03;;;4.00;1.00;;;;;;5034622;28;20924;-66
2020/12/29 04:03:55;;;;;;;22.10;15.07;;;3.90;1.00;;;;;;5033262;28;20446;-66
2020/12/29 04:06:21;;;;;;;23.77;16.47;;;4.00;1.00;;;;;;5033334;28;20195;-59
2020/12/29 04:08:48;;;;;;;19.30;14.20;;;4.20;1.00;;;;;;5032533;28;20444;-66
2020/12/29 04:11:14;;;;;;;21.43;13.87;;;4.00;1.00;;;;;;5034936;28;20199;-66
2020/12/29 04:13:40;;;;;;;21.00;14.20;;;3.80;1.00;;;;;;5036978;28;20584;-65
2020/12/29 04:16:06;;;;;;;21.50;14.83;;;3.80;1.00;;;;;;5034540;28;20180;-66
2020/12/29 04:18:32;;;;;;;23.57;15.03;;;3.70;1.00;;;;;;5034183;28;20434;-57
2020/12/29 04:20:58;;;;;;;23.83;15.00;;;3.70;1.00;;;;;;5031896;28;20503;-65
2020/12/29 04:23:23;;;;;;;19.97;13.60;;;3.70;1.00;;;;;;5033420;28;20329;-58
2020/12/29 04:25:49;;;;;;;21.53;13.97;;;3.60;1.00;;;;;;5032827;28;20206;-58
2020/12/29 04:28:15;;;;;;;20.83;13.90;;;3.70;1.00;;;;;;5032841;28;20448;-62
2020/12/29 04:30:40;;;;;;;22.87;14.30;;;3.60;1.00;;;;;;5033997;28;20598;-58
2020/12/29 04:33:06;;;;;;;20.17;13.70;;;3.70;1.00;;;;;;5032976;28;20182;-58
2020/12/29 04:35:32;;;;;;;20.03;15.03;;;3.70;1.00;;;;;;5016538;28;20197;-65
2020/12/29 04:37:57;;;;;;;18.80;13.10;;;3.60;1.00;;;;;;5031822;28;20215;-58
2020/12/29 04:40:23;;;;;;;18.67;12.80;;;3.50;1.00;;;;;;5033399;28;20613;-65
2020/12/29 04:42:52;;;;;;;19.90;13.27;;;3.50;1.00;;;;;;5032467;28;20255;-65
2020/12/29 04:45:19;;;;;;;21.57;13.30;;;3.40;1.00;;;;;;5033012;28;20188;-65
2020/12/29 04:47:45;;;;;;;21.30;13.03;;;3.50;1.00;;;;;;5033366;28;20446;-65
2020/12/29 04:50:13;;;;;;;18.70;13.83;;;3.50;1.00;;;;;;5034034;28;20933;-65
2020/12/29 04:52:43;;;;;;;22.40;13.50;;;3.50;1.00;;;;;;5033287;28;20436;-57
2020/12/29 04:55:09;;;;;;;21.20;12.90;;;3.40;1.00;;;;;;5031272;28;20502;-65
2020/12/29 04:57:35;;;;;;;18.80;12.03;;;3.50;1.00;;;;;;5032657;28;20734;-58
2020/12/29 05:00:05;;;;;;;18.60;12.53;;;3.40;1.00;;;;;;5033703;28;20495;-58
2020/12/29 05:02:31;;;;;;;18.67;12.50;;;3.40;1.00;;;;;;5049422;28;20190;-65
2020/12/29 05:04:56;;;;;;;19.83;12.53;;;3.50;1.00;;;;;;5053891;28;20736;-57
2020/12/29 05:07:22;;;;;;;20.07;13.70;;;3.40;1.00;;;;;;5054421;28;20202;-65
2020/12/29 05:09:49;;;;;;;20.40;12.77;;;3.40;1.00;;;;;;5037161;28;20185;-59
2020/12/29 05:12:17;;;;;;;23.97;13.53;;;3.30;1.00;;;;;;5018987;28;20193;-59
2020/12/29 05:14:47;;;;;;;21.30;13.27;;;3.30;1.00;;;;;;5030632;28;20440;-59
2020/12/29 05:17:14;;;;;;;21.00;14.60;;;3.20;1.00;;;;;;5033651;28;20430;-59
2020/12/29 05:19:41;;;;;;;24.53;16.80;;;3.20;1.00;;;;;;5033857;28;20422;-60
2020/12/29 05:22:08;;;;;;;24.40;14.93;;;3.40;1.00;;;;;;5033829;28;20499;-60
2020/12/29 05:24:34;;;;;;;18.63;12.47;;;3.40;1.00;;;;;;5033873;28;20428;-60
2020/12/29 05:27:01;;;;;;;22.33;14.77;;;3.50;1.00;;;;;;5034751;28;20859;-60
2020/12/29 05:29:29;;;;;;;23.70;14.60;;;3.40;1.00;;;;;;5033996;28;20175;-68
2020/12/29 05:31:55;;;;;;;24.10;14.40;;;3.40;1.00;;;;;;5033421;28;20536;-57
2020/12/29 05:34:29;;;;;;;21.20;14.33;;;3.30;1.00;;;;;;5033796;28;20426;-69
2020/12/29 05:36:57;;;;;;;23.73;13.50;;;3.30;1.00;;;;;;5045022;28;20196;-68
2020/12/29 05:39:25;;;;;;;20.17;14.07;;;3.20;1.00;;;;;;5053804;28;20969;-68
2020/12/29 05:41:53;;;;;;;20.40;12.53;;;3.20;1.00;;;;;;5054452;28;20432;-58
2020/12/29 05:44:34;;;;;;;22.37;14.47;;;3.20;1.00;;;;;;5041277;28;20437;-68
2020/12/29 05:47:03;;;;;;;23.40;14.20;;;3.10;1.00;;;;;;5033745;28;20440;-68
2020/12/29 05:49:31;;;;;;;19.20;13.07;;;3.10;1.00;;;;;;5032910;28;20434;-69
2020/12/29 05:51:58;;;;;;;21.70;14.90;;;3.10;1.00;;;;;;5032484;28;20470;-58
2020/12/29 05:54:25;;;;;;;24.93;15.77;;;3.10;1.00;;;;;;5034803;28;20753;-58
2020/12/29 05:56:51;;;;;;;23.50;13.97;;;3.20;1.00;;;;;;5037382;28;20428;-57
2020/12/29 05:59:17;;;;;;;21.77;13.50;;;3.20;1.00;;;;;;5037131;28;20431;-67
2020/12/29 06:01:44;;;;;;;23.50;14.13;;;3.10;1.00;;;;;;5036144;28;20440;-58
2020/12/29 06:04:10;;;;;;;21.50;13.80;;;3.10;1.00;;;;;;5037237;28;20404;-58
2020/12/29 06:06:38;;;;;;;19.73;12.63;;;3.10;1.00;;;;;;5036201;28;20420;-58
2020/12/29 06:09:09;;;;;;;21.37;13.40;;;3.10;1.00;;;;;;5035913;28;20491;-59
2020/12/29 06:11:42;;;;;;;19.63;12.67;;;3.10;1.00;;;;;;5045449;28;20479;-70
2020/12/29 06:14:11;;;;;;;20.80;13.47;;;3.10;1.00;;;;;;5019412;28;20420;-58
2020/12/29 06:16:39;;;;;;;19.47;13.40;;;3.00;1.00;;;;;;5044368;28;20429;-70
2020/12/29 06:19:23;;;;;;;19.93;12.90;;;2.90;1.00;;;;;;5036814;28;20446;-59
2020/12/29 06:22:04;;;;;;;23.27;13.13;;;2.80;1.00;;;;;;5036735;28;20899;-58
2020/12/29 06:24:31;;;;;;;21.67;12.43;;;2.80;1.00;;;;;;5035806;28;20513;-69
2020/12/29 06:27:02;;;;;;;18.27;12.83;;;2.80;1.00;;;;;;5035390;28;20440;-69
2020/12/29 06:29:50;;;;;;;19.47;13.13;;;2.90;1.00;;;;;;5037542;28;20446;-69
2020/12/29 06:32:19;;;;;;;16.47;11.03;;;2.90;1.00;;;;;;5055570;28;20448;-58
2020/12/29 06:34:46;;;;;;;18.87;12.33;;;3.10;1.00;;;;;;5056474;28;20423;-69
2020/12/29 06:37:37;;;;;;;18.77;12.97;;;3.00;1.00;;;;;;5051974;28;20485;-69
2020/12/29 06:40:07;;;;;;;18.03;10.63;;;3.10;1.00;;;;;;5016713;28;20425;-58
2020/12/29 06:42:38;;;;;;;16.90;10.77;;;3.10;1.00;;;;;;5016785;28;20493;-59
2020/12/29 06:45:06;;;;;;;17.47;10.67;;;3.20;1.00;;;;;;5020953;28;20425;-69
2020/12/29 06:47:32;;;;;;;15.60;10.83;;;3.10;1.00;;;;;;5036291;28;20459;-68
2020/12/29 06:49:57;;;;;;;16.60;10.10;;;3.20;1.00;;;;;;5043678;28;20429;-68
2020/12/29 06:52:23;;;;;;;16.13;9.97;;;3.20;1.00;;;;;;5051322;28;20210;-69
2020/12/29 06:54:53;;;;;;;16.10;9.80;;;3.20;1.00;;;;;;5035129;28;20170;-60
2020/12/29 06:57:38;;;;;;;15.30;10.50;;;3.30;1.00;;;;;;5035087;28;20207;-69
2020/12/29 07:00:13;;;;;;;9.87;8.03;;;3.50;1.00;;;;;;5035900;28;20744;-69
2020/12/29 07:02:40;;;;;;;13.53;8.10;;;3.40;1.00;;;;;;5035010;28;20437;-69
2020/12/29 07:05:35;;;;;;;10.10;8.70;;;3.50;1.00;;;;;;5034313;28;20933;-69
2020/12/29 07:08:06;;;;;;;11.77;7.93;;;3.50;1.00;;;;;;5033633;28;20429;-68
2020/12/29 07:10:42;;;;;;;10.60;7.77;;;3.50;1.00;;;;;;5035696;28;20454;-58
2020/12/29 07:13:13;;;;;;;16.20;10.83;;;3.50;1.00;;;;;;5034771;28;20435;-58
2020/12/29 07:15:53;;;;;;;15.57;8.83;;;3.40;1.00;;;;;;5045496;28;20434;-71
2020/12/29 07:18:22;;;;;;;11.90;8.10;;;3.50;1.00;;;;;;5054496;28;20445;-70
2020/12/29 07:20:49;;;;;;;10.47;8.03;;;3.60;1.00;;;;;;5054633;28;20417;-72
2020/12/29 07:23:20;;;;;;;12.37;8.40;;;3.60;1.00;;;;;;5055122;28;20824;-71
2020/12/29 07:25:49;;;;;;;13.40;8.90;;;3.70;1.00;;;;;;5050912;28;20460;-71
2020/12/29 07:28:17;;;;;;;11.60;7.80;;;3.70;1.00;;;;;;5048517;28;20454;-71
2020/12/29 07:30:43;;;;;;;14.27;8.60;;;3.70;1.00;;;;;;5036669;28;20997;-59
2020/12/29 07:33:08;;;;;;;12.50;8.27;;;3.60;1.00;;;;;;5033779;28;20442;-70
2020/12/29 07:35:37;;;;;;;12.37;9.10;;;3.60;1.00;;;;;;5033027;28;20180;-60
2020/12/29 07:38:13;;;;;;;10.67;8.27;;;3.80;1.00;;;;;;5032208;28;20182;-70
2020/12/29 07:40:40;;;;;;;11.50;7.53;;;3.70;1.00;;;;;;5035194;28;20896;-59
2020/12/29 07:43:06;;;;;;;10.13;6.97;;;3.70;1.00;;;;;;5034017;28;20922;-58
2020/12/29 07:45:32;;;;;;;9.50;7.13;;;3.80;1.00;;;;;;5033645;28;20433;-58
2020/12/29 07:47:59;;;;;;;11.90;7.40;;;3.70;1.00;;;;;;5033724;28;20438;-58
2020/12/29 07:50:26;;;;;;;10.20;7.17;;;3.80;1.00;;;;;;5032814;28;20464;-58
2020/12/29 07:53:03;;;;;;;7.50;5.93;;;3.90;1.00;;;;;;5032759;28;20510;-58
2020/12/29 07:55:29;;;;;;;9.57;7.13;;;4.00;1.00;;;;;;5035338;28;20427;-69
2020/12/29 07:57:55;;;;;;;10.77;6.83;;;4.00;1.00;;;;;;5040285;28;20419;-70
2020/12/29 08:00:21;;;;;;;9.07;6.53;;;4.20;1.00;;;;;;5057339;28;20620;-69
2020/12/29 08:02:51;;;;;;;8.67;6.40;;;4.20;1.00;;;;;;5035854;28;20485;-69
2020/12/29 08:05:20;;;;;;;12.53;9.30;;;4.30;1.00;;;;;;5034070;28;20195;-69
2020/12/29 08:08:13;;;;;;;9.43;7.40;;;4.40;1.00;;;;;;5035341;28;20442;-70
2020/12/29 08:10:43;;;;;;;7.10;6.13;;;4.40;1.00;;;;;;5031009;28;20481;-70
2020/12/29 08:13:14;;;;;;;8.57;5.97;;;4.40;1.00;;;;;;5033765;28;20822;-68
2020/12/29 08:15:43;;;;;;;9.80;6.13;;;4.40;1.00;;;;;;5034044;28;20737;-58
2020/12/29 08:18:19;;;;;;;7.30;6.00;;;4.30;1.00;;;;;;5034369;28;20470;-69
2020/12/29 08:20:50;;;;;;;10.17;7.00;;;4.50;1.00;;;;;;5034147;28;20917;-68
2020/12/29 08:23:20;;;;;;;9.40;7.50;;;4.60;1.00;;;;;;5034441;28;20442;-70
2020/12/29 08:25:49;;;;;;;7.83;5.63;;;4.60;1.00;;;;;;5034625;28;20874;-70
2020/12/29 08:28:15;;;;;;;8.10;5.23;;;4.60;1.00;;;;;;5034189;28;20486;-60
2020/12/29 08:30:40;;;;;;;8.13;6.10;;;4.70;1.00;;;;;;5033181;28;20865;-60
2020/12/29 08:33:07;;;;;;;7.67;6.00;;;4.80;1.00;;;;;;5044310;28;20509;-67
2020/12/29 08:35:43;;;;;;;7.93;5.90;;;4.70;1.00;;;;;;5054061;28;20258;-60
2020/12/29 08:38:22;;;;;;;8.30;6.20;;;4.70;1.00;;;;;;5039431;28;20857;-60
2020/12/29 08:40:56;;;;;;;8.40;5.77;;;4.90;1.00;;;;;;5034310;28;20411;-59
2020/12/29 08:43:24;;;;;;;10.87;8.97;;;4.90;1.00;;;;;;5034361;28;20406;-61
2020/12/29 08:46:00;;;;;;;8.40;6.77;;;5.10;1.00;;;;;;5032767;28;20439;-60
2020/12/29 08:48:26;;;;;;;8.50;5.77;;;5.10;1.00;;;;;;5033572;28;20907;-60
2020/12/29 08:50:51;;;;;;;6.37;5.70;;;5.10;1.00;;;;;;5033592;28;20473;-61
2020/12/29 08:53:24;;;;;;;6.93;6.13;;;5.10;1.00;;;;;;5033172;28;20436;-60
2020/12/29 08:55:49;;;;;;;9.53;6.27;;;5.10;1.00;;;;;;5034026;28;20226;-67
2020/12/29 08:58:24;;;;;;;7.90;5.77;;;5.10;1.00;;;;;;5034196;28;20858;-67
2020/12/29 09:00:50;;;;;;;7.70;6.17;;;5.10;1.00;;;;;;5034432;28;20171;-59
2020/12/29 09:03:23;;;;;;;9.70;6.63;;;5.10;1.00;;;;;;5037214;28;20431;-60
2020/12/29 09:05:54;;;;;;;9.60;6.63;;;5.20;1.00;;;;;;5034080;28;20184;-59
2020/12/29 09:08:28;;;;;;;8.83;7.00;;;5.20;1.00;;;;;;5033789;28;20418;-59
2020/12/29 09:11:10;;;;;;;8.13;6.67;;;5.30;1.00;;;;;;5032980;28;20486;-67
2020/12/29 09:13:37;;;;;;;7.97;6.80;;;5.30;1.00;;;;;;5032890;28;20435;-67
2020/12/29 09:16:12;;;;;;;9.60;7.30;;;5.30;1.00;;;;;;5033877;28;20422;-66
2020/12/29 09:18:39;;;;;;;7.87;6.57;;;5.20;1.00;;;;;;5034082;28;20429;-66
2020/12/29 09:21:25;;;;;;;10.23;7.67;;;5.30;1.00;;;;;;5033149;28;20420;-67
2020/12/29 09:23:57;;;;;;;7.97;6.27;;;5.40;1.00;;;;;;5032782;28;20912;-60
2020/12/29 09:26:23;;;;;;;7.60;5.07;;;5.50;1.00;;;;;;5033872;28;20423;-61
2020/12/29 09:28:49;;;;;;;5.10;4.60;;;5.70;1.00;;;;;;5037821;28;20423;-60
2020/12/29 09:31:14;;;;;;;6.13;4.70;;;5.90;1.00;;;;;;5036792;28;20232;-61
2020/12/29 09:33:40;;;;;;;6.07;5.43;;;6.00;1.00;;;;;;5037302;28;20177;-60
2020/12/29 09:36:19;;;;;;;5.70;4.93;;;6.10;1.00;;;;;;5038003;28;20598;-59
2020/12/29 09:38:46;;;;;;;5.87;4.80;;;6.30;1.00;;;;;;5036138;28;20430;-60
2020/12/29 09:41:12;;;;;;;5.53;4.70;;;6.50;1.00;;;;;;5036312;28;20432;-68
2020/12/29 09:43:37;;;;;;;7.83;5.40;;;6.50;1.00;;;;;;5046139;28;20483;-60
2020/12/29 09:46:03;;;;;;;5.10;4.40;;;6.60;1.00;;;;;;5057398;28;20190;-67
2020/12/29 09:48:29;;;;;;;7.00;5.67;;;6.70;1.00;;;;;;5057262;28;20183;-60
2020/12/29 09:50:55;;;;;;;5.47;4.53;;;6.70;1.00;;;;;;5057116;28;20454;-62
2020/12/29 09:53:20;;;;;;;5.30;4.30;;;6.90;1.00;;;;;;5037633;28;20189;-70
2020/12/29 09:55:46;;;;;;;5.13;4.10;;;6.90;1.00;;;;;;5036418;28;20431;-67
2020/12/29 09:58:12;;;;;;;6.27;3.97;;;7.00;1.00;;;;;;5038025;28;20173;-67
2020/12/29 10:00:37;;;;;;;5.50;4.10;;;7.00;1.00;;;;;;5038425;28;20173;-61
2020/12/29 10:03:03;;;;;;;7.13;4.57;;;7.00;1.00;;;;;;5050626;28;20180;-65
2020/12/29 10:05:29;;;;;;;4.50;3.90;;;7.10;1.00;;;;;;5057552;28;20183;-60
2020/12/29 10:07:54;;;;;;;6.10;4.80;;;7.30;1.00;;;;;;5059238;28;20180;-69
2020/12/29 10:10:20;;;;;;;3.80;2.93;;;7.40;1.00;;;;;;5056437;28;20722;-67
2020/12/29 10:12:46;;;;;;;7.80;4.80;;;7.60;1.00;;;;;;5056875;28;20172;-67
2020/12/29 10:15:12;;;;;;;1.80;1.70;;;7.60;1.00;;;;;;5057025;28;20529;-61
2020/12/29 10:17:38;;;;;;;1.27;1.17;;;7.80;1.00;;;;;;5056840;28;20168;-68
2020/12/29 10:20:07;;;;;;;1.20;1.10;;;8.10;1.00;;;;;;5056723;28;20164;-70
2020/12/29 10:22:33;;;;;;;1.10;1.00;;;8.40;1.00;;;;;;5056488;28;20627;-68
2020/12/29 10:24:58;;;;;;;0.73;0.70;;;8.60;1.00;;;;;;5048252;28;20943;-60
2020/12/29 10:27:24;;;;;;;0.93;0.70;;;8.90;1.00;;;;;;5036528;28;20419;-60
2020/12/29 10:29:50;;;;;;;0.70;0.70;;;9.10;1.00;;;;;;5036031;28;20200;-60
2020/12/29 10:32:20;;;;;;;1.30;0.73;;;9.10;1.00;;;;;;5036037;28;20463;-69
2020/12/29 10:34:46;;;;;;;0.73;0.73;;;9.30;1.00;;;;;;5031226;28;20169;-69
2020/12/29 10:37:12;;;;;;;1.50;1.00;;;9.30;1.00;;;;;;5037560;28;20450;-68
2020/12/29 10:39:38;;;;;;;1.27;1.00;;;9.10;1.00;;;;;;5038251;28;21016;-70
2020/12/29 10:42:04;;;;;;;1.60;0.93;;;8.90;1.00;;;;;;5056519;28;20172;-70
2020/12/29 10:44:30;;;;;;;0.80;0.67;;;8.80;1.00;;;;;;5036466;28;20434;-61
2020/12/29 10:46:56;;;;;;;1.00;0.90;;;8.70;1.00;;;;;;5036030;28;20474;-61
2020/12/29 10:49:22;;;;;;;1.33;0.90;;;8.50;1.00;;;;;;5035634;28;20463;-61
2020/12/29 10:51:49;;;;;;;1.20;1.10;;;8.50;1.00;;;;;;5035052;28;20533;-69
2020/12/29 10:54:14;;;;;;;1.20;1.10;;;8.60;1.00;;;;;;5034743;28;20177;-60
2020/12/29 10:56:40;;;;;;;2.77;1.00;;;8.60;1.00;;;;;;5035180;28;20522;-61
2020/12/29 10:59:06;;;;;;;1.20;1.10;;;8.70;1.00;;;;;;5036068;28;20176;-69
2020/12/29 11:01:31;;;;;;;1.53;0.90;;;8.80;1.00;;;;;;5035964;28;20173;-60
2020/12/29 11:03:57;;;;;;;1.47;0.97;;;9.00;1.00;;;;;;5034636;28;20177;-60
2020/12/29 11:06:23;;;;;;;1.33;1.03;;;9.20;1.00;;;;;;5034003;28;20268;-60
2020/12/29 11:08:50;;;;;;;1.60;1.20;;;9.40;1.00;;;;;;5035764;28;20267;-70
2020/12/29 11:11:17;;;;;;;1.73;1.20;;;9.40;1.00;;;;;;5040077;28;20461;-71
2020/12/29 11:13:43;;;;;;;0.93;0.93;;;9.50;1.00;;;;;;5054571;28;20422;-70
2020/12/29 11:16:19;;;;;;;2.03;1.67;;;9.70;1.00;;;;;;5054221;28;20819;-71
2020/12/29 11:18:46;;;;;;;1.50;1.33;;;9.90;1.00;;;;;;5035142;28;20889;-60
2020/12/29 11:21:14;;;;;;;1.87;1.40;;;10.20;1.00;;;;;;5035421;28;21169;-59
2020/12/29 11:23:40;;;;;;;3.00;2.10;;;10.20;1.00;;;;;;5035057;28;20490;-60
2020/12/29 11:26:05;;;;;;;2.33;1.90;;;10.40;1.00;;;;;;5035211;28;20808;-60
2020/12/29 11:28:31;;;;;;;1.77;1.67;;;10.60;1.00;;;;;;5035406;28;20666;-60
2020/12/29 11:30:57;;;;;;;1.50;1.20;;;10.60;1.00;;;;;;5035481;28;20239;-61
2020/12/29 11:33:22;;;;;;;1.93;1.60;;;10.60;1.00;;;;;;5044298;28;20316;-61
2020/12/29 11:35:48;;;;;;;2.30;2.10;;;10.90;1.00;;;;;;5054286;28;20201;-60
2020/12/29 11:38:15;;;;;;;2.70;1.83;;;10.80;1.00;;;;;;5054107;28;20195;-61
2020/12/29 11:40:41;;;;;;;1.90;1.60;;;10.60;1.00;;;;;;5045423;28;20192;-60
2020/12/29 11:43:07;;;;;;;2.47;1.70;;;10.40;1.00;;;;;;5034796;28;20432;-60
2020/12/29 11:45:33;;;;;;;2.20;1.60;;;10.10;1.00;;;;;;5043577;28;20431;-60
2020/12/29 11:47:58;;;;;;;14.83;2.07;;;9.90;1.00;;;;;;5034009;28;20177;-61
2020/12/29 11:50:24;;;;;;;2.70;2.10;;;9.80;1.00;;;;;;5034450;28;20256;-60
2020/12/29 11:52:49;;;;;;;2.77;2.27;;;9.70;1.00;;;;;;5033325;28;20620;-61
2020/12/29 11:55:15;;;;;;;1.90;1.40;;;9.60;1.00;;;;;;5034720;28;20169;-60
2020/12/29 11:57:41;;;;;;;2.37;1.93;;;9.70;1.00;;;;;;5034966;28;20185;-59
2020/12/29 12:00:07;;;;;;;3.00;2.20;;;9.50;1.00;;;;;;5033301;28;20179;-60
2020/12/29 12:02:33;;;;;;;2.60;2.20;;;9.30;1.00;;;;;;5034847;28;20207;-61
2020/12/29 12:04:59;;;;;;;3.70;2.63;;;9.20;1.00;;;;;;5033837;28;20530;-60
2020/12/29 12:07:25;;;;;;;3.93;3.00;;;9.10;1.00;;;;;;5033380;28;20435;-61
2020/12/29 12:09:51;;;;;;;4.17;3.50;;;9.00;1.00;;;;;;5032986;28;20439;-61
2020/12/29 12:12:16;;;;;;;3.43;2.63;;;9.00;1.00;;;;;;5033463;28;20775;-60
2020/12/29 12:14:42;;;;;;;3.23;3.03;;;9.00;1.00;;;;;;5033670;28;20176;-61
2020/12/29 12:17:07;;;;;;;2.17;1.97;;;9.00;1.00;;;;;;5034340;28;20177;-60
2020/12/29 12:19:33;;;;;;;1.80;1.50;;;9.20;1.00;;;;;;5034617;28;20260;-60
2020/12/29 12:22:01;;;;;;;2.90;1.60;;;9.40;1.00;;;;;;5035856;28;20603;-61
2020/12/29 12:24:26;;;;;;;1.40;1.00;;;9.40;1.00;;;;;;5033718;28;20680;-61
2020/12/29 12:26:52;;;;;;;1.43;1.33;;;9.40;1.00;;;;;;5034562;28;20431;-61
2020/12/29 12:29:18;;;;;;;1.63;1.53;;;9.30;1.00;;;;;;5034491;28;20272;-61
2020/12/29 12:31:44;;;;;;;1.20;1.10;;;9.30;1.00;;;;;;5033828;28;20665;-60
2020/12/29 12:34:10;;;;;;;0.97;0.80;;;9.40;1.00;;;;;;5034399;28;20263;-60
2020/12/29 12:36:35;;;;;;;1.17;1.03;;;9.40;1.00;;;;;;5033801;28;20459;-60
2020/12/29 12:39:01;;;;;;;1.10;0.93;;;9.40;1.00;;;;;;5033919;28;20259;-60
2020/12/29 12:41:27;;;;;;;1.10;1.00;;;9.20;1.00;;;;;;5051457;28;20189;-59
2020/12/29 12:43:52;;;;;;;1.83;1.23;;;9.20;1.00;;;;;;5034306;28;20241;-60
2020/12/29 12:46:18;;;;;;;2.53;1.23;;;9.40;1.00;;;;;;5033985;28;20491;-59
2020/12/29 12:48:43;;;;;;;2.67;1.17;;;9.40;1.00;;;;;;5033735;28;20184;-60
2020/12/29 12:51:10;;;;;;;1.60;1.50;;;9.40;1.00;;;;;;5033628;28;20298;-60
2020/12/29 12:53:36;;;;;;;1.00;0.90;;;9.40;1.00;;;;;;5033854;28;20480;-60
2020/12/29 12:56:01;;;;;;;1.80;1.40;;;9.40;1.00;;;;;;5033112;28;20951;-60
2020/12/29 12:58:27;;;;;;;3.43;2.27;;;9.30;1.00;;;;;;5033081;28;20467;-61